createdAt,value
2019-05-25T00:02:28.244Z,11.90
2019-05-25T00:04:58.497Z,11.90
2019-05-25T00:07:29.164Z,11.80
2019-05-25T00:09:59.348Z,11.80
2019-05-25T00:12:29.569Z,11.80
2019-05-25T00:15:00.122Z,11.80
2019-05-25T00:17:30.346Z,11.80
2019-05-25T00:20:00.953Z,11.70
2019-05-25T00:22:31.468Z,11.70
2019-05-25T00:25:01.659Z,11.70
2019-05-25T00:27:33.023Z,11.60
2019-05-25T00:30:03.854Z,11.60
2019-05-25T00:32:35.666Z,11.60
2019-05-25T00:35:08.342Z,11.60
2019-05-25T00:37:39.065Z,11.50
2019-05-25T00:40:09.837Z,11.50
2019-05-25T00:42:40.078Z,11.60
2019-05-25T00:45:10.612Z,11.60
2019-05-25T00:47:40.873Z,11.60
2019-05-25T00:50:11.064Z,11.70
2019-05-25T00:52:41.298Z,11.80
2019-05-25T00:55:11.564Z,11.90
2019-05-25T00:57:42.493Z,11.90
2019-05-25T01:00:12.951Z,12.00
2019-05-25T01:02:43.175Z,12.00
2019-05-25T01:05:13.539Z,12.10
2019-05-25T01:07:43.773Z,12.10
2019-05-25T01:10:14.238Z,12.20
2019-05-25T01:12:44.463Z,12.20
2019-05-25T01:15:16.814Z,12.30
2019-05-25T01:17:47.021Z,12.30
2019-05-25T01:20:18.001Z,12.40
2019-05-25T01:22:48.308Z,12.40
2019-05-25T01:25:18.925Z,12.40
2019-05-25T01:27:49.158Z,12.30
2019-05-25T01:30:20.047Z,12.20
2019-05-25T01:32:50.564Z,12.10
2019-05-25T01:35:20.735Z,12.00
2019-05-25T01:37:50.962Z,12.00
2019-05-25T01:40:21.770Z,11.90
2019-05-25T01:42:52.090Z,11.80
2019-05-25T01:45:22.355Z,11.80
2019-05-25T01:47:52.639Z,11.70
2019-05-25T01:50:22.833Z,11.70
2019-05-25T01:52:53.439Z,11.60
2019-05-25T01:55:23.623Z,11.50
2019-05-25T01:57:54.233Z,11.50
2019-05-25T02:00:24.778Z,11.50
2019-05-25T02:02:55.381Z,11.50
2019-05-25T02:05:25.562Z,11.50
2019-05-25T02:07:55.790Z,11.40
2019-05-25T02:10:25.983Z,11.40
2019-05-25T02:12:56.203Z,11.40
2019-05-25T02:15:26.725Z,11.40
2019-05-25T02:17:57.243Z,11.40
2019-05-25T02:20:27.523Z,11.50
2019-05-25T02:22:58.107Z,11.50
2019-05-25T02:25:28.644Z,11.50
2019-05-25T02:27:58.862Z,11.60
2019-05-25T02:30:29.779Z,11.60
2019-05-25T02:33:00.814Z,11.60
2019-05-25T02:35:31.190Z,11.60
2019-05-25T02:38:01.415Z,11.60
2019-05-25T02:40:31.937Z,11.50
2019-05-25T02:43:02.513Z,11.50
2019-05-25T02:45:32.699Z,11.60
2019-05-25T02:48:03.213Z,11.70
2019-05-25T02:50:33.426Z,11.70
2019-05-25T02:53:03.715Z,11.70
2019-05-25T02:55:35.151Z,11.70
2019-05-25T02:58:05.778Z,11.70
2019-05-25T03:00:36.366Z,11.60
2019-05-25T03:03:06.783Z,11.60
2019-05-25T03:05:37.717Z,11.50
2019-05-25T03:08:07.916Z,11.50
2019-05-25T03:10:38.716Z,11.40
2019-05-25T03:13:08.937Z,11.30
2019-05-25T03:15:39.318Z,11.30
2019-05-25T03:18:10.184Z,11.30
2019-05-25T03:20:40.393Z,11.20
2019-05-25T03:23:10.606Z,11.20
2019-05-25T03:25:49.117Z,11.10
2019-05-25T03:28:12.777Z,11.10
2019-05-25T03:30:43.026Z,11.10
2019-05-25T03:33:13.217Z,11.00
2019-05-25T03:35:43.423Z,11.00
2019-05-25T03:38:13.642Z,11.10
2019-05-25T03:40:44.636Z,11.20
2019-05-25T03:43:14.865Z,11.20
2019-05-25T03:45:45.374Z,11.30
2019-05-25T03:48:15.649Z,11.30
2019-05-25T03:50:45.816Z,11.40
2019-05-25T03:53:16.376Z,11.40
2019-05-25T03:55:46.553Z,11.40
2019-05-25T03:58:17.493Z,11.50
2019-05-25T04:00:47.754Z,11.50
2019-05-25T04:03:18.704Z,11.50
2019-05-25T04:05:48.906Z,11.50
2019-05-25T04:08:19.847Z,11.60
2019-05-25T04:10:50.044Z,11.60
2019-05-25T04:13:20.244Z,11.60
2019-05-25T04:15:50.434Z,11.70
2019-05-25T04:18:20.574Z,11.80
2019-05-25T04:20:50.740Z,11.90
2019-05-25T04:23:20.959Z,12.00
2019-05-25T04:25:51.170Z,12.10
2019-05-25T04:28:21.378Z,12.20
2019-05-25T04:30:51.548Z,12.20
2019-05-25T04:33:22.194Z,12.20
2019-05-25T04:35:52.412Z,12.20
2019-05-25T04:38:22.668Z,12.20
2019-05-25T04:40:52.953Z,12.30
2019-05-25T04:43:23.182Z,12.30
2019-05-25T04:45:53.364Z,12.40
2019-05-25T04:48:23.534Z,12.40
2019-05-25T04:50:53.717Z,12.50
2019-05-25T04:53:24.308Z,12.60
2019-05-25T04:55:54.564Z,12.60
2019-05-25T04:58:24.828Z,12.80
2019-05-25T05:00:55.367Z,12.90
2019-05-25T05:03:25.550Z,12.90
2019-05-25T05:05:55.732Z,13.10
2019-05-25T05:08:25.819Z,13.20
2019-05-25T05:10:56.361Z,13.30
2019-05-25T05:13:26.566Z,13.30
2019-05-25T05:15:56.761Z,13.40
2019-05-25T05:18:26.954Z,13.30
2019-05-25T05:20:57.127Z,13.20
2019-05-25T05:23:27.643Z,13.10
2019-05-25T05:25:57.828Z,13.10
2019-05-25T05:28:28.035Z,13.00
2019-05-25T05:30:58.231Z,13.00
2019-05-25T05:33:28.856Z,13.10
2019-05-25T05:36:00.271Z,13.20
2019-05-25T05:38:32.388Z,13.40
2019-05-25T05:41:03.464Z,13.50
2019-05-25T05:43:34.985Z,13.70
2019-05-25T05:46:08.060Z,13.80
2019-05-25T05:48:41.093Z,13.80
2019-05-25T05:51:14.110Z,13.80
2019-05-25T05:53:46.062Z,13.80
2019-05-25T05:56:16.529Z,13.80
2019-05-25T05:58:47.703Z,13.80
2019-05-25T06:01:19.061Z,13.80
2019-05-25T06:03:49.337Z,13.90
2019-05-25T06:06:19.539Z,13.80
2019-05-25T06:08:49.739Z,13.80
2019-05-25T06:11:19.991Z,13.80
2019-05-25T06:13:50.124Z,13.80
2019-05-25T06:16:20.740Z,13.70
2019-05-25T06:18:51.005Z,13.70
2019-05-25T06:21:21.529Z,13.80
2019-05-25T06:23:52.074Z,13.80
2019-05-25T06:26:22.597Z,13.80
2019-05-25T06:28:52.807Z,13.80
2019-05-25T06:31:23.055Z,13.80
2019-05-25T06:33:53.611Z,13.90
2019-05-25T06:36:23.801Z,13.80
2019-05-25T06:38:54.506Z,13.80
2019-05-25T06:41:24.667Z,13.80
2019-05-25T06:43:55.169Z,13.80
2019-05-25T06:46:25.365Z,13.90
2019-05-25T06:48:55.655Z,13.90
2019-05-25T06:51:26.260Z,13.90
2019-05-25T06:53:56.488Z,13.90
2019-05-25T06:56:26.622Z,13.80
2019-05-25T06:58:57.052Z,13.80
2019-05-25T07:01:27.249Z,13.70
2019-05-25T07:03:57.473Z,13.70
2019-05-25T07:06:27.653Z,13.60
2019-05-25T07:08:57.838Z,13.60
2019-05-25T07:11:28.097Z,13.60
2019-05-25T07:13:58.306Z,13.60
2019-05-25T07:16:29.189Z,13.60
2019-05-25T07:18:59.461Z,13.50
2019-05-25T07:21:29.635Z,13.40
2019-05-25T07:23:59.956Z,13.40
2019-05-25T07:26:30.169Z,13.30
2019-05-25T07:29:00.392Z,13.30
2019-05-25T07:31:30.669Z,13.20
2019-05-25T07:34:00.938Z,13.30
2019-05-25T07:36:31.220Z,13.30
2019-05-25T07:39:01.460Z,13.30
2019-05-25T07:41:33.580Z,13.20
2019-05-25T07:44:04.075Z,13.10
2019-05-25T07:46:34.287Z,13.00
2019-05-25T07:49:04.548Z,13.00
2019-05-25T07:51:34.882Z,12.90
2019-05-25T07:54:05.105Z,13.00
2019-05-25T07:56:35.552Z,12.90
2019-05-25T07:59:05.848Z,13.00
2019-05-25T08:01:36.138Z,13.10
2019-05-25T08:04:06.350Z,13.20
2019-05-25T08:06:36.622Z,13.20
2019-05-25T08:09:08.434Z,13.20
2019-05-25T08:11:38.991Z,13.10
2019-05-25T08:14:09.217Z,13.00
2019-05-25T08:16:39.859Z,13.00
2019-05-25T08:19:10.387Z,13.00
2019-05-25T08:21:40.641Z,13.00
2019-05-25T08:24:10.798Z,13.10
2019-05-25T08:26:40.973Z,13.10
2019-05-25T08:29:11.253Z,13.20
2019-05-25T08:31:41.437Z,13.30
2019-05-25T08:34:11.698Z,13.30
2019-05-25T08:36:41.800Z,13.30
2019-05-25T08:39:13.345Z,13.30
2019-05-25T08:41:45.648Z,13.10
2019-05-25T08:44:15.823Z,13.10
2019-05-25T08:46:46.436Z,13.20
2019-05-25T08:49:16.677Z,13.40
2019-05-25T08:51:46.938Z,13.50
2019-05-25T08:54:17.227Z,13.50
2019-05-25T08:56:47.432Z,13.80
2019-05-25T08:59:18.353Z,13.90
2019-05-25T09:01:48.748Z,14.20
2019-05-25T09:04:20.217Z,14.40
2019-05-25T09:06:50.476Z,14.70
2019-05-25T09:09:21.014Z,14.90
2019-05-25T09:11:51.320Z,15.10
2019-05-25T09:14:21.862Z,15.20
2019-05-25T09:16:52.108Z,15.60
2019-05-25T09:19:22.690Z,16.00
2019-05-25T09:22:02.161Z,16.10
2019-05-25T09:24:25.192Z,16.20
2019-05-25T09:26:55.730Z,16.30
2019-05-25T09:29:26.049Z,16.30
2019-05-25T09:31:56.277Z,16.30
2019-05-25T09:34:26.575Z,16.30
2019-05-25T09:36:56.798Z,16.60
2019-05-25T09:39:27.764Z,16.60
2019-05-25T09:41:57.985Z,16.60
2019-05-25T09:44:28.254Z,16.70
2019-05-25T09:46:58.639Z,16.90
2019-05-25T09:49:28.929Z,17.20
2019-05-25T09:51:59.221Z,17.30
2019-05-25T09:54:29.439Z,17.40
2019-05-25T09:56:59.769Z,17.40
2019-05-25T09:59:30.229Z,17.30
2019-05-25T10:02:00.367Z,17.30
2019-05-25T10:04:30.599Z,17.20
2019-05-25T10:07:00.837Z,16.80
2019-05-25T10:09:31.101Z,16.80
2019-05-25T10:12:01.589Z,16.70
2019-05-25T10:14:32.222Z,16.60
2019-05-25T10:17:02.396Z,16.70
2019-05-25T10:19:32.968Z,16.80
2019-05-25T10:22:03.270Z,16.90
2019-05-25T10:24:33.559Z,16.80
2019-05-25T10:27:04.136Z,16.90
2019-05-25T10:29:37.450Z,16.70
2019-05-25T10:32:06.951Z,16.60
2019-05-25T10:34:37.168Z,16.90
2019-05-25T10:37:08.005Z,17.10
2019-05-25T10:39:38.205Z,17.50
2019-05-25T10:42:08.518Z,17.60
2019-05-25T10:44:38.827Z,17.80
2019-05-25T10:47:09.055Z,18.10
2019-05-25T10:49:39.339Z,18.30
2019-05-25T10:52:09.619Z,18.40
2019-05-25T10:54:39.853Z,18.30
2019-05-25T10:57:13.114Z,18.40
2019-05-25T10:59:52.464Z,18.20
2019-05-25T11:02:14.244Z,18.40
2019-05-25T11:04:44.505Z,18.50
2019-05-25T11:07:14.725Z,18.50
2019-05-25T11:09:45.020Z,18.80
2019-05-25T11:12:15.252Z,18.60
2019-05-25T11:14:45.830Z,18.30
2019-05-25T11:17:16.180Z,18.50
2019-05-25T11:19:46.406Z,18.70
2019-05-25T11:22:16.666Z,18.70
2019-05-25T11:24:46.952Z,18.70
2019-05-25T11:27:17.078Z,18.90
2019-05-25T11:29:47.904Z,19.20
2019-05-25T11:32:18.160Z,19.10
2019-05-25T11:34:48.844Z,18.90
2019-05-25T11:37:19.065Z,19.10
2019-05-25T11:39:49.286Z,19.00
2019-05-25T11:42:19.501Z,19.00
2019-05-25T11:44:49.719Z,19.20
2019-05-25T11:47:19.919Z,19.30
2019-05-25T11:49:50.166Z,19.40
2019-05-25T11:52:20.366Z,19.40
2019-05-25T11:54:50.634Z,19.50
2019-05-25T11:57:20.969Z,19.40
2019-05-25T11:59:51.170Z,19.70
2019-05-25T12:02:21.355Z,20.20
2019-05-25T12:04:51.552Z,20.60
2019-05-25T12:07:21.756Z,21.00
2019-05-25T12:09:51.976Z,21.10
2019-05-25T12:12:22.264Z,21.30
2019-05-25T12:14:52.572Z,21.60
2019-05-25T12:17:22.860Z,21.70
2019-05-25T12:19:53.127Z,22.00
2019-05-25T12:22:23.613Z,21.80
2019-05-25T12:24:54.117Z,21.60
2019-05-25T12:27:24.315Z,21.30
2019-05-25T12:29:55.014Z,21.40
2019-05-25T12:32:25.263Z,21.30
2019-05-25T12:34:55.877Z,21.30
2019-05-25T12:37:27.175Z,21.30
2019-05-25T12:39:57.427Z,21.20
2019-05-25T12:42:27.714Z,21.10
2019-05-25T12:44:57.925Z,21.30
2019-05-25T12:47:28.048Z,21.30
2019-05-25T12:49:58.270Z,21.30
2019-05-25T12:52:28.549Z,21.00
2019-05-25T12:54:58.909Z,20.70
2019-05-25T12:57:29.111Z,20.50
2019-05-25T13:00:14.324Z,20.10
2019-05-25T13:02:31.525Z,19.90
2019-05-25T13:05:01.961Z,19.60
2019-05-25T13:07:33.494Z,19.50
2019-05-25T13:10:04.157Z,19.50
2019-05-25T13:12:34.460Z,19.50
2019-05-25T13:15:07.216Z,19.20
2019-05-25T13:17:37.475Z,19.10
2019-05-25T13:20:08.790Z,19.00
2019-05-25T13:22:39.101Z,19.10
2019-05-25T13:25:10.069Z,19.40
2019-05-25T13:27:40.253Z,19.60
2019-05-25T13:30:11.591Z,19.70
2019-05-25T13:32:41.860Z,19.60
2019-05-25T13:35:12.276Z,19.50
2019-05-25T13:37:42.392Z,19.60
2019-05-25T13:40:13.005Z,19.80
2019-05-25T13:42:43.195Z,19.90
2019-05-25T13:45:14.175Z,20.00
2019-05-25T13:47:44.792Z,20.10
2019-05-25T13:50:15.722Z,20.40
2019-05-25T13:52:46.356Z,21.30
2019-05-25T13:55:17.834Z,21.70
2019-05-25T13:57:48.835Z,21.70
2019-05-25T14:00:19.352Z,22.30
2019-05-25T14:02:49.611Z,22.90
2019-05-25T14:05:20.196Z,23.80
2019-05-25T14:07:50.402Z,24.50
2019-05-25T14:10:20.601Z,24.30
2019-05-25T14:12:50.894Z,24.20
2019-05-25T14:15:21.066Z,24.70
2019-05-25T14:17:51.366Z,25.40
2019-05-25T14:20:21.916Z,26.10
2019-05-25T14:22:52.191Z,25.80
2019-05-25T14:25:22.393Z,24.90
2019-05-25T14:27:52.611Z,24.40
2019-05-25T14:30:23.185Z,24.40
2019-05-25T14:32:53.461Z,24.90
2019-05-25T14:35:23.673Z,25.00
2019-05-25T14:37:53.862Z,25.20
2019-05-25T14:40:24.133Z,26.10
2019-05-25T14:42:54.412Z,26.90
2019-05-25T14:45:24.610Z,27.10
2019-05-25T14:47:55.112Z,25.80
2019-05-25T14:50:25.679Z,24.70
2019-05-25T14:52:56.661Z,23.20
2019-05-25T14:55:27.088Z,22.80
2019-05-25T14:57:57.285Z,23.60
2019-05-25T15:00:27.553Z,24.40
2019-05-25T15:02:58.447Z,24.50
2019-05-25T15:05:29.043Z,23.80
2019-05-25T15:07:59.327Z,23.40
2019-05-25T15:10:29.645Z,24.10
2019-05-25T15:13:00.166Z,25.20
2019-05-25T15:15:31.095Z,25.70
2019-05-25T15:18:01.307Z,26.00
2019-05-25T15:20:31.915Z,25.60
2019-05-25T15:23:02.200Z,24.00
2019-05-25T15:25:32.554Z,22.60
2019-05-25T15:28:02.929Z,21.50
2019-05-25T15:30:44.624Z,21.10
2019-05-25T15:33:14.851Z,20.80
2019-05-25T15:35:45.078Z,20.50
2019-05-25T15:38:16.343Z,20.50
2019-05-25T15:40:46.652Z,20.70
2019-05-25T15:43:16.821Z,21.00
2019-05-25T15:45:47.079Z,21.50
2019-05-25T15:48:17.376Z,22.40
2019-05-25T15:50:47.557Z,23.30
2019-05-25T15:53:18.073Z,24.30
2019-05-25T15:55:48.288Z,24.30
2019-05-25T15:58:18.492Z,23.50
2019-05-25T16:00:51.104Z,22.60
2019-05-25T16:03:22.379Z,21.50
2019-05-25T16:05:52.745Z,21.00
2019-05-25T16:08:23.010Z,21.40
2019-05-25T16:10:53.239Z,22.30
2019-05-25T16:13:23.733Z,22.30
2019-05-25T16:15:53.975Z,22.80
2019-05-25T16:18:24.080Z,23.30
2019-05-25T16:20:54.295Z,23.80
2019-05-25T16:23:24.462Z,24.40
2019-05-25T16:25:54.684Z,25.40
2019-05-25T16:28:24.875Z,26.10
2019-05-25T16:30:55.087Z,26.90
2019-05-25T16:33:25.284Z,26.50
2019-05-25T16:35:58.082Z,25.60
2019-05-25T16:38:28.253Z,24.80
2019-05-25T16:40:58.460Z,23.90
2019-05-25T16:43:28.661Z,23.10
2019-05-25T16:45:59.009Z,23.50
2019-05-25T16:48:29.230Z,24.30
2019-05-25T16:50:59.545Z,23.50
2019-05-25T16:53:29.781Z,22.40
2019-05-25T16:56:00.291Z,22.60
2019-05-25T16:58:30.860Z,24.10
2019-05-25T17:01:01.549Z,25.30
2019-05-25T17:03:31.923Z,26.40
2019-05-25T17:06:02.142Z,26.70
2019-05-25T17:08:32.294Z,26.40
2019-05-25T17:11:02.921Z,26.30
2019-05-25T17:13:33.118Z,26.60
2019-05-25T17:16:03.369Z,27.20
2019-05-25T17:18:34.092Z,26.70
2019-05-25T17:21:04.708Z,26.80
2019-05-25T17:23:34.861Z,27.20
2019-05-25T17:26:05.311Z,27.70
2019-05-25T17:28:37.043Z,28.30
2019-05-25T17:31:07.558Z,28.70
2019-05-25T17:33:45.818Z,29.10
2019-05-25T17:36:12.970Z,29.30
2019-05-25T17:38:41.630Z,29.30
2019-05-25T17:41:12.140Z,28.80
2019-05-25T17:43:42.254Z,29.10
2019-05-25T17:46:12.996Z,28.90
2019-05-25T17:48:43.168Z,29.20
2019-05-25T17:51:13.439Z,29.50
2019-05-25T17:53:43.969Z,29.70
2019-05-25T17:56:14.194Z,29.40
2019-05-25T17:58:44.759Z,29.10
2019-05-25T18:01:15.392Z,29.20
2019-05-25T18:04:04.352Z,28.80
2019-05-25T18:06:17.652Z,27.40
2019-05-25T18:08:47.899Z,25.60
2019-05-25T18:11:19.113Z,24.00
2019-05-25T18:13:49.232Z,22.70
2019-05-25T18:16:19.513Z,21.80
2019-05-25T18:18:49.728Z,21.10
2019-05-25T18:21:19.985Z,20.50
2019-05-25T18:23:50.240Z,20.10
2019-05-25T18:26:20.757Z,19.60
2019-05-25T18:28:50.948Z,19.20
2019-05-25T18:31:21.197Z,19.00
2019-05-25T18:33:51.410Z,18.70
2019-05-25T18:36:21.711Z,18.50
2019-05-25T18:38:52.320Z,18.30
2019-05-25T18:41:22.637Z,18.00
2019-05-25T18:43:53.247Z,17.80
2019-05-25T18:46:23.798Z,17.70
2019-05-25T18:48:54.353Z,17.40
2019-05-25T18:51:24.489Z,17.60
2019-05-25T18:53:54.850Z,16.80
2019-05-25T18:56:25.034Z,17.30
2019-05-25T18:58:55.256Z,17.30
2019-05-25T19:01:25.449Z,17.30
2019-05-25T19:03:55.652Z,17.20
2019-05-25T19:06:25.945Z,17.00
2019-05-25T19:08:56.172Z,16.90
2019-05-25T19:11:26.387Z,16.80
2019-05-25T19:13:56.609Z,16.70
2019-05-25T19:16:26.787Z,16.60
2019-05-25T19:18:57.080Z,16.50
2019-05-25T19:21:27.317Z,16.40
2019-05-25T19:23:57.533Z,16.40
2019-05-25T19:26:27.739Z,16.30
2019-05-25T19:28:58.045Z,16.30
2019-05-25T19:31:28.736Z,16.20
2019-05-25T19:33:59.233Z,16.50
2019-05-25T19:36:29.472Z,16.00
2019-05-25T19:39:00.099Z,15.90
2019-05-25T19:41:30.308Z,15.90
2019-05-25T19:44:00.785Z,15.80
2019-05-25T19:46:31.020Z,15.70
2019-05-25T19:49:01.228Z,15.60
2019-05-25T19:51:31.432Z,15.50
2019-05-25T19:54:02.009Z,15.50
2019-05-25T19:56:32.241Z,15.40
2019-05-25T19:59:02.378Z,15.20
2019-05-25T20:01:32.603Z,15.10
2019-05-25T20:04:02.862Z,15.00
2019-05-25T20:06:33.084Z,15.00
2019-05-25T20:09:03.396Z,14.90
2019-05-25T20:11:33.576Z,14.90
2019-05-25T20:14:04.126Z,14.90
2019-05-25T20:16:35.392Z,14.90
2019-05-25T20:19:05.701Z,14.80
2019-05-25T20:21:36.341Z,14.70
2019-05-25T20:24:06.575Z,14.70
2019-05-25T20:26:37.226Z,14.60
2019-05-25T20:29:07.871Z,14.60
2019-05-25T20:31:38.108Z,14.50
2019-05-25T20:34:08.245Z,14.30
2019-05-25T20:36:38.498Z,14.30
2019-05-25T20:39:08.812Z,14.20
2019-05-25T20:41:38.987Z,14.20
2019-05-25T20:44:09.526Z,14.10
2019-05-25T20:46:39.769Z,14.00
2019-05-25T20:49:10.019Z,13.90
2019-05-25T20:51:40.248Z,13.90
2019-05-25T20:54:10.757Z,13.80
2019-05-25T20:56:41.038Z,13.80
2019-05-25T20:59:11.238Z,13.70
2019-05-25T21:01:41.618Z,13.60
2019-05-25T21:04:12.024Z,13.60
2019-05-25T21:06:42.304Z,13.60
2019-05-25T21:09:12.600Z,13.50
2019-05-25T21:11:43.116Z,13.50
2019-05-25T21:14:13.333Z,13.50
2019-05-25T21:16:43.562Z,13.50
2019-05-25T21:19:13.790Z,13.50
2019-05-25T21:21:44.280Z,13.40
2019-05-25T21:24:14.681Z,13.40
2019-05-25T21:26:44.924Z,13.40
2019-05-25T21:29:15.547Z,13.30
2019-05-25T21:31:45.810Z,13.30
2019-05-25T21:34:16.090Z,13.30
2019-05-25T21:36:47.066Z,13.30
2019-05-25T21:39:17.342Z,13.20
2019-05-25T21:41:47.542Z,13.20
2019-05-25T21:44:17.787Z,13.10
2019-05-25T21:46:48.048Z,13.10
2019-05-25T21:49:18.362Z,13.20
2019-05-25T21:51:48.654Z,13.20
2019-05-25T21:54:20.306Z,13.20
2019-05-25T21:56:50.538Z,13.20
2019-05-25T21:59:20.817Z,13.20
2019-05-25T22:01:51.480Z,13.30
2019-05-25T22:04:21.706Z,13.30
2019-05-25T22:06:52.200Z,13.30
2019-05-25T22:09:22.497Z,13.40
2019-05-25T22:11:53.095Z,13.30
2019-05-25T22:14:23.322Z,13.30
2019-05-25T22:16:53.591Z,13.30
2019-05-25T22:19:23.808Z,13.20
2019-05-25T22:21:54.092Z,13.20
2019-05-25T22:24:24.299Z,13.10
2019-05-25T22:26:54.586Z,13.10
2019-05-25T22:29:24.863Z,13.10
2019-05-25T22:31:55.093Z,13.00
2019-05-25T22:34:25.344Z,13.00
2019-05-25T22:36:55.612Z,13.00
2019-05-25T22:39:26.163Z,13.00
2019-05-25T22:41:56.351Z,13.00
2019-05-25T22:44:27.836Z,13.00
2019-05-25T22:46:58.392Z,12.90
2019-05-25T22:49:28.689Z,12.80
2019-05-25T22:51:58.953Z,12.80
2019-05-25T22:54:29.289Z,12.70
2019-05-25T22:56:59.483Z,12.70
2019-05-25T22:59:29.839Z,12.70
2019-05-25T23:02:00.120Z,12.60
2019-05-25T23:04:30.336Z,12.60
2019-05-25T23:07:00.696Z,12.50
2019-05-25T23:09:30.885Z,12.50
2019-05-25T23:12:01.091Z,12.50
2019-05-25T23:14:31.740Z,12.50
2019-05-25T23:17:02.329Z,12.40
2019-05-25T23:19:32.903Z,12.40
2019-05-25T23:22:03.198Z,12.40
2019-05-25T23:24:33.827Z,12.30
2019-05-25T23:27:05.091Z,12.30
2019-05-25T23:29:35.385Z,12.30
2019-05-25T23:32:05.815Z,12.20
2019-05-25T23:34:36.017Z,12.20
2019-05-25T23:37:14.714Z,12.20
2019-05-25T23:39:38.313Z,12.20
2019-05-25T23:42:08.561Z,12.10
2019-05-25T23:44:38.823Z,12.10
2019-05-25T23:47:09.478Z,12.10
2019-05-25T23:49:40.127Z,12.10
2019-05-25T23:52:13.309Z,12.00
2019-05-25T23:54:43.530Z,12.10
2019-05-25T23:57:14.094Z,12.00
2019-05-25T23:59:44.266Z,12.00
